Time;durP1;ratioP1;P1;durP2;ratioP2;P2;SDS_P1;SDS_P2;PMS_P1;PMS_P2;Temp;Humidity;BMP_temperature;BMP_pressure;BME280_temperature;BME280_humidity;BME280_pressure;Samples;Min_cycle;Max_cycle;Signal;HPM_P1;HPM_P2
2022/08/21 00:00:37;;;;;;;7.25;2.38;;;17.90;99.90;;;;;;5072883;28;20048;-53
2022/08/21 00:03:06;;;;;;;5.47;2.17;;;17.90;99.90;;;;;;5074674;28;20087;-52
2022/08/21 00:05:36;;;;;;;4.78;1.83;;;17.80;99.90;;;;;;5069811;28;20052;-53
2022/08/21 00:08:03;;;;;;;3.30;1.77;;;17.70;99.90;;;;;;5063428;28;20021;-53
2022/08/21 00:10:28;;;;;;;3.97;2.10;;;17.60;99.90;;;;;;5068279;28;20039;-52
2022/08/21 00:12:54;;;;;;;2.92;2.33;;;17.50;99.90;;;;;;5068930;28;20036;-53
2022/08/21 00:15:29;;;;;;;6.20;2.03;;;17.40;99.90;;;;;;5079155;28;20017;-53
2022/08/21 00:17:55;;;;;;;5.28;2.08;;;17.40;99.90;;;;;;5089506;28;20040;-53
2022/08/21 00:20:22;;;;;;;4.55;2.33;;;17.40;99.90;;;;;;5068415;28;20550;-53
2022/08/21 00:22:48;;;;;;;4.88;2.40;;;17.30;99.90;;;;;;5068842;28;20047;-53
2022/08/21 00:25:15;;;;;;;3.35;2.42;;;17.30;99.90;;;;;;5061345;28;20017;-53
2022/08/21 00:27:42;;;;;;;7.82;2.50;;;17.20;99.90;;;;;;5076932;28;20420;-53
2022/08/21 00:30:10;;;;;;;8.93;3.20;;;17.20;99.90;;;;;;5068979;28;20120;-53
2022/08/21 00:32:37;;;;;;;11.95;2.97;;;17.30;99.90;;;;;;5076629;28;20495;-53
2022/08/21 00:35:11;;;;;;;4.55;2.13;;;17.20;99.90;;;;;;5069310;28;20055;-53
2022/08/21 00:37:37;;;;;;;5.43;2.17;;;17.20;99.90;;;;;;5063620;28;20024;-53
2022/08/21 00:40:04;;;;;;;5.55;2.65;;;17.20;99.90;;;;;;5072372;28;20107;-53
2022/08/21 00:42:30;;;;;;;4.40;2.33;;;17.20;99.90;;;;;;5070908;28;20480;-53
2022/08/21 00:44:56;;;;;;;2.40;1.77;;;17.10;99.90;;;;;;5079591;28;20070;-53
2022/08/21 00:47:21;;;;;;;5.95;2.30;;;17.00;99.90;;;;;;5089371;28;20153;-53
2022/08/21 00:49:47;;;;;;;4.72;2.00;;;17.00;99.90;;;;;;5076428;28;20039;-53
2022/08/21 00:52:20;;;;;;;6.07;2.30;;;17.00;99.90;;;;;;5085585;28;20039;-53
2022/08/21 00:54:46;;;;;;;4.88;2.42;;;17.00;99.90;;;;;;5079956;28;20053;-54
2022/08/21 00:57:19;;;;;;;6.95;2.20;;;16.80;99.90;;;;;;5086045;28;20339;-53
2022/08/21 00:59:48;;;;;;;4.07;2.20;;;16.90;99.90;;;;;;5073729;28;20513;-53
2022/08/21 01:02:17;;;;;;;3.65;2.20;;;16.90;99.90;;;;;;5079984;28;20055;-53
2022/08/21 01:04:42;;;;;;;7.97;2.58;;;16.80;99.90;;;;;;5076413;28;20065;-53
2022/08/21 01:07:08;;;;;;;7.28;2.13;;;16.80;99.90;;;;;;5080291;28;20141;-53
2022/08/21 01:09:34;;;;;;;4.75;2.20;;;16.60;99.90;;;;;;5085488;28;20036;-53
2022/08/21 01:11:59;;;;;;;2.63;2.22;;;16.60;99.90;;;;;;5088578;28;20028;-53
2022/08/21 01:14:25;;;;;;;4.55;2.53;;;16.50;99.90;;;;;;5089419;28;20119;-53
2022/08/21 01:16:52;;;;;;;2.30;1.65;;;16.40;99.90;;;;;;5076283;28;20058;-53
2022/08/21 01:19:20;;;;;;;5.07;2.63;;;16.30;99.90;;;;;;5086826;28;20103;-53
2022/08/21 01:21:46;;;;;;;5.70;2.58;;;16.30;99.90;;;;;;5082504;28;20028;-53
2022/08/21 01:24:12;;;;;;;8.23;2.80;;;16.30;99.90;;;;;;5080615;28;20028;-53
2022/08/21 01:26:39;;;;;;;5.57;2.40;;;16.30;99.90;;;;;;5072115;28;20114;-53
2022/08/21 01:29:11;;;;;;;3.85;2.33;;;16.40;99.90;;;;;;5072830;28;20025;-52
2022/08/21 01:31:37;;;;;;;4.80;2.33;;;16.20;99.90;;;;;;5071209;28;20043;-53
2022/08/21 01:34:03;;;;;;;4.03;2.00;;;16.20;99.90;;;;;;5080555;28;20482;-53
2022/08/21 01:36:29;;;;;;;5.13;2.42;;;16.10;99.90;;;;;;5089258;28;20058;-53
2022/08/21 01:38:56;;;;;;;3.10;2.22;;;16.00;99.90;;;;;;5081160;28;20465;-53
2022/08/21 01:41:21;;;;;;;2.90;2.17;;;15.90;99.90;;;;;;5080098;28;20060;-53
2022/08/21 01:43:47;;;;;;;3.47;2.05;;;15.80;99.90;;;;;;5080349;28;20526;-53
2022/08/21 01:46:13;;;;;;;6.65;2.78;;;15.80;99.90;;;;;;5075476;28;20479;-53
2022/08/21 01:48:39;;;;;;;5.80;2.53;;;15.80;99.90;;;;;;5072002;28;20028;-53
2022/08/21 01:51:07;;;;;;;3.45;2.38;;;15.80;99.90;;;;;;5079896;28;20024;-53
2022/08/21 01:53:36;;;;;;;5.00;2.60;;;15.80;99.90;;;;;;5091500;28;20038;-53
2022/08/21 01:56:04;;;;;;;6.40;2.70;;;15.70;99.90;;;;;;5075879;28;20028;-53
2022/08/21 01:58:30;;;;;;;6.38;2.90;;;15.60;99.90;;;;;;5091541;28;20296;-53
2022/08/21 02:00:56;;;;;;;3.92;2.38;;;15.60;99.90;;;;;;5077802;28;20519;-53
2022/08/21 02:03:21;;;;;;;4.70;2.78;;;15.60;99.90;;;;;;5090387;28;20028;-53
2022/08/21 02:05:47;;;;;;;6.28;2.88;;;15.50;99.90;;;;;;5075887;28;20081;-53
2022/08/21 02:08:12;;;;;;;6.28;3.00;;;15.50;99.90;;;;;;5083650;28;20021;-52
2022/08/21 02:10:38;;;;;;;6.22;3.22;;;15.50;99.90;;;;;;5076325;28;20027;-53
2022/08/21 02:13:04;;;;;;;4.45;2.53;;;15.40;99.90;;;;;;5083162;28;20099;-53
2022/08/21 02:15:31;;;;;;;4.18;2.60;;;15.40;99.90;;;;;;5082956;28;20438;-53
2022/08/21 02:17:59;;;;;;;5.20;2.83;;;15.40;99.90;;;;;;5076535;28;20444;-53
2022/08/21 02:20:29;;;;;;;3.83;2.80;;;15.30;99.90;;;;;;5063222;28;20025;-53
2022/08/21 02:22:55;;;;;;;7.00;2.73;;;15.30;99.90;;;;;;5074037;28;20032;-53
2022/08/21 02:25:23;;;;;;;4.00;2.58;;;15.20;99.90;;;;;;5073178;28;20013;-53
2022/08/21 02:27:48;;;;;;;10.27;3.17;;;15.20;99.90;;;;;;5083375;28;20042;-53
2022/08/21 02:30:18;;;;;;;5.60;2.67;;;15.10;99.90;;;;;;5084125;28;20256;-53
2022/08/21 02:32:43;;;;;;;4.28;3.08;;;15.10;99.90;;;;;;5087009;28;20024;-53
2022/08/21 02:35:10;;;;;;;4.78;2.60;;;15.10;99.90;;;;;;5069760;28;20150;-53
2022/08/21 02:37:54;;;;;;;6.95;3.22;;;15.20;99.90;;;;;;5079391;28;20024;-53
2022/08/21 02:40:23;;;;;;;6.60;3.25;;;15.10;99.90;;;;;;5071251;28;20028;-53
2022/08/21 02:42:48;;;;;;;8.57;2.80;;;15.10;99.90;;;;;;5082290;28;20139;-53
2022/08/21 02:45:14;;;;;;;5.05;2.67;;;15.10;99.90;;;;;;5089912;28;20113;-53
2022/08/21 02:47:48;;;;;;;4.03;2.58;;;15.00;99.90;;;;;;5079556;28;20403;-53
2022/08/21 02:50:17;;;;;;;3.65;2.53;;;15.00;99.90;;;;;;5088058;28;20189;-53
2022/08/21 02:52:42;;;;;;;5.78;2.42;;;15.00;99.90;;;;;;5076375;28;20032;-53
2022/08/21 02:55:09;;;;;;;5.75;2.30;;;15.00;99.90;;;;;;5074424;28;20028;-53
2022/08/21 02:57:35;;;;;;;5.38;2.45;;;15.10;99.90;;;;;;5075395;28;20495;-53
2022/08/21 03:00:01;;;;;;;7.40;2.88;;;15.00;99.90;;;;;;5086067;28;20574;-53
2022/08/21 03:02:26;;;;;;;5.88;2.78;;;15.10;99.90;;;;;;5083428;28;20028;-53
2022/08/21 03:04:52;;;;;;;4.55;2.80;;;15.10;99.90;;;;;;5082405;28;20033;-53
2022/08/21 03:07:17;;;;;;;4.28;2.92;;;15.10;99.90;;;;;;5085809;28;20039;-53
2022/08/21 03:09:43;;;;;;;5.88;2.53;;;15.10;99.90;;;;;;5078161;28;20098;-52
2022/08/21 03:12:08;;;;;;;5.13;2.40;;;15.10;99.90;;;;;;5070080;28;20031;-53
2022/08/21 03:14:34;;;;;;;6.63;2.45;;;15.00;99.90;;;;;;5069933;28;20552;-52
2022/08/21 03:16:59;;;;;;;4.85;3.20;;;15.00;99.90;;;;;;5070773;28;20032;-53
2022/08/21 03:19:25;;;;;;;6.68;4.55;;;15.00;99.90;;;;;;5070082;28;20028;-52
2022/08/21 03:21:50;;;;;;;6.35;4.43;;;15.00;99.90;;;;;;5078446;28;20024;-54
2022/08/21 03:24:16;;;;;;;8.45;5.07;;;14.90;99.90;;;;;;5070236;28;20020;-53
2022/08/21 03:26:41;;;;;;;8.77;3.83;;;14.80;99.90;;;;;;5076787;28;20479;-52
2022/08/21 03:29:07;;;;;;;7.30;2.92;;;14.80;99.90;;;;;;5086314;28;20138;-53
2022/08/21 03:31:32;;;;;;;7.50;2.92;;;14.80;99.90;;;;;;5084067;28;20128;-53
2022/08/21 03:33:58;;;;;;;4.57;2.60;;;14.80;99.90;;;;;;5084984;28;20065;-53
2022/08/21 03:36:24;;;;;;;4.57;2.83;;;14.70;99.90;;;;;;5085485;28;20389;-53
2022/08/21 03:38:50;;;;;;;5.07;3.17;;;14.60;99.90;;;;;;5084047;28;20028;-53
2022/08/21 03:41:15;;;;;;;4.30;2.63;;;14.60;99.90;;;;;;5069848;28;20025;-52
2022/08/21 03:43:41;;;;;;;5.03;3.05;;;14.50;99.90;;;;;;5073872;28;20028;-52
2022/08/21 03:46:06;;;;;;;5.07;3.03;;;14.60;99.90;;;;;;5090304;28;20032;-53
2022/08/21 03:48:33;;;;;;;6.20;3.22;;;14.60;99.90;;;;;;5089912;28;20046;-53
2022/08/21 03:50:59;;;;;;;4.57;3.47;;;14.60;99.90;;;;;;5082903;28;20514;-52
2022/08/21 03:53:25;;;;;;;5.00;2.67;;;14.50;99.90;;;;;;5086993;28;20024;-53
2022/08/21 03:55:52;;;;;;;9.45;3.70;;;14.50;99.90;;;;;;5069918;28;20364;-55
2022/08/21 03:58:20;;;;;;;4.60;2.90;;;14.40;99.90;;;;;;5067823;28;20037;-53
2022/08/21 04:00:48;;;;;;;6.57;3.35;;;14.30;99.90;;;;;;5076589;28;20056;-52
2022/08/21 04:03:14;;;;;;;6.53;3.00;;;14.30;99.90;;;;;;5069886;28;20047;-53
2022/08/21 04:05:40;;;;;;;5.45;3.03;;;14.40;99.90;;;;;;5074077;28;20024;-53
2022/08/21 04:08:06;;;;;;;7.97;3.75;;;14.40;99.90;;;;;;5089924;28;20471;-52
2022/08/21 04:10:34;;;;;;;6.40;2.85;;;14.40;99.90;;;;;;5086278;28;20400;-53
2022/08/21 04:13:00;;;;;;;4.07;3.03;;;14.30;99.90;;;;;;5077660;28;20024;-52
2022/08/21 04:15:26;;;;;;;4.38;3.22;;;14.30;99.90;;;;;;5086550;28;20034;-52
2022/08/21 04:17:52;;;;;;;5.38;3.22;;;14.30;99.90;;;;;;5077824;28;20032;-52
2022/08/21 04:20:18;;;;;;;8.07;4.25;;;14.30;99.90;;;;;;5086767;28;20421;-52
2022/08/21 04:22:44;;;;;;;9.23;3.53;;;14.30;99.90;;;;;;5073520;28;20023;-52
2022/08/21 04:25:12;;;;;;;4.90;3.45;;;14.20;99.90;;;;;;5073344;28;20388;-53
2022/08/21 04:27:39;;;;;;;4.22;2.90;;;14.10;99.90;;;;;;5076040;28;20424;-53
2022/08/21 04:30:04;;;;;;;9.32;3.25;;;14.10;99.90;;;;;;5085851;28;20024;-52
2022/08/21 04:32:30;;;;;;;11.07;3.03;;;14.10;99.90;;;;;;5059616;28;20033;-52
2022/08/21 04:35:01;;;;;;;4.15;3.08;;;14.00;99.90;;;;;;5073613;28;20016;-52
2022/08/21 04:37:27;;;;;;;6.47;3.75;;;14.00;99.90;;;;;;5067865;28;20032;-52
2022/08/21 04:39:52;;;;;;;7.07;3.75;;;14.10;99.90;;;;;;5068754;28;20033;-52
2022/08/21 04:42:18;;;;;;;5.38;3.85;;;14.10;99.90;;;;;;5076742;28;20025;-52
2022/08/21 04:44:44;;;;;;;5.53;3.22;;;14.00;99.90;;;;;;5089706;28;20016;-53
2022/08/21 04:47:09;;;;;;;9.80;4.35;;;14.00;99.90;;;;;;5089494;28;20417;-52
2022/08/21 04:49:35;;;;;;;7.80;3.88;;;14.00;99.90;;;;;;5089604;28;20103;-53
2022/08/21 04:52:01;;;;;;;7.50;3.63;;;14.00;99.90;;;;;;5089152;28;20386;-52
2022/08/21 04:54:27;;;;;;;6.32;3.60;;;14.00;99.90;;;;;;5089627;28;20456;-53
2022/08/21 04:56:59;;;;;;;4.38;3.00;;;14.10;99.90;;;;;;5085366;28;20596;-53
2022/08/21 04:59:30;;;;;;;8.38;4.32;;;14.20;99.90;;;;;;5080749;28;20046;-52
2022/08/21 05:01:56;;;;;;;5.72;3.65;;;14.20;99.90;;;;;;5087461;28;20079;-53
2022/08/21 05:04:26;;;;;;;6.30;3.88;;;14.30;99.90;;;;;;5087951;28;20027;-53
2022/08/21 05:06:54;;;;;;;4.85;3.40;;;14.30;99.90;;;;;;5079836;28;20020;-53
2022/08/21 05:09:21;;;;;;;5.55;3.55;;;14.40;99.90;;;;;;5068462;28;20036;-53
2022/08/21 05:11:47;;;;;;;5.45;3.15;;;14.40;99.90;;;;;;5081245;28;20028;-53
2022/08/21 05:14:13;;;;;;;6.70;3.50;;;14.40;99.90;;;;;;5068748;28;20048;-53
2022/08/21 05:16:39;;;;;;;6.57;3.72;;;14.40;99.90;;;;;;5065450;28;20059;-53
2022/08/21 05:19:06;;;;;;;6.82;3.55;;;14.50;99.90;;;;;;5078330;28;20077;-52
2022/08/21 05:21:32;;;;;;;5.85;3.55;;;14.50;99.90;;;;;;5073234;28;20475;-53
2022/08/21 05:23:58;;;;;;;4.70;3.47;;;14.60;99.90;;;;;;5071901;28;20060;-53
2022/08/21 05:26:23;;;;;;;8.32;3.45;;;14.60;99.90;;;;;;5072864;28;20451;-53
2022/08/21 05:28:48;;;;;;;7.38;3.60;;;14.70;99.90;;;;;;5072964;28;20024;-53
2022/08/21 05:31:14;;;;;;;4.70;3.25;;;14.70;99.90;;;;;;5080764;28;20055;-53
2022/08/21 05:33:39;;;;;;;6.70;2.88;;;14.80;99.90;;;;;;5080513;28;20099;-53
2022/08/21 05:36:05;;;;;;;5.80;3.42;;;14.80;99.90;;;;;;5071003;28;20028;-53
2022/08/21 05:38:31;;;;;;;8.23;3.28;;;14.90;99.90;;;;;;5083848;28;20418;-51
2022/08/21 05:40:56;;;;;;;6.53;3.22;;;15.00;99.90;;;;;;5092539;28;20020;-52
2022/08/21 05:43:22;;;;;;;7.60;3.60;;;15.10;99.90;;;;;;5075174;28;20149;-53
2022/08/21 05:45:48;;;;;;;9.93;3.35;;;15.10;99.90;;;;;;5079323;28;20052;-53
2022/08/21 05:48:22;;;;;;;7.05;3.75;;;15.20;99.90;;;;;;5080813;28;20181;-52
2022/08/21 05:50:49;;;;;;;7.40;3.15;;;15.20;99.90;;;;;;5078801;28;20048;-53
2022/08/21 05:53:17;;;;;;;5.57;3.10;;;15.30;99.90;;;;;;5080869;28;20455;-52
2022/08/21 05:55:43;;;;;;;4.20;3.00;;;15.40;99.90;;;;;;5085092;28;20031;-53
2022/08/21 05:58:08;;;;;;;6.32;3.75;;;15.50;99.90;;;;;;5090667;28;20110;-53
2022/08/21 06:00:34;;;;;;;5.65;3.30;;;15.70;99.90;;;;;;5083803;28;20116;-53
2022/08/21 06:03:00;;;;;;;6.47;3.42;;;15.80;99.90;;;;;;5092314;28;20414;-53
2022/08/21 06:05:26;;;;;;;10.02;4.20;;;15.90;99.90;;;;;;5092598;28;20032;-53
2022/08/21 06:07:51;;;;;;;4.03;3.10;;;16.10;99.90;;;;;;5080601;28;20039;-53
2022/08/21 06:10:17;;;;;;;3.20;2.72;;;16.30;99.90;;;;;;5071807;28;20021;-53
2022/08/21 06:12:42;;;;;;;6.00;3.25;;;16.40;99.90;;;;;;5070629;28;20039;-53
2022/08/21 06:15:08;;;;;;;5.68;3.03;;;16.60;99.90;;;;;;5070360;28;20020;-54
2022/08/21 06:17:34;;;;;;;8.30;2.95;;;16.80;99.90;;;;;;5070434;28;20028;-54
2022/08/21 06:19:59;;;;;;;6.30;3.05;;;16.90;99.90;;;;;;5071371;28;20412;-54
2022/08/21 06:22:25;;;;;;;4.38;2.70;;;17.10;99.90;;;;;;5070547;28;20072;-54
2022/08/21 06:24:51;;;;;;;3.50;2.67;;;17.30;99.90;;;;;;5070305;28;20444;-54
2022/08/21 06:27:17;;;;;;;8.60;3.22;;;17.40;99.90;;;;;;5078499;28;20052;-53
2022/08/21 06:29:44;;;;;;;9.40;3.30;;;17.40;99.90;;;;;;5071653;28;20051;-53
2022/08/21 06:32:11;;;;;;;6.07;3.03;;;17.50;99.90;;;;;;5069601;28;20043;-53
2022/08/21 06:34:38;;;;;;;5.65;2.30;;;17.50;99.90;;;;;;5075368;28;20035;-53
2022/08/21 06:37:04;;;;;;;4.05;2.50;;;17.60;99.90;;;;;;5091955;28;20116;-53
2022/08/21 06:39:30;;;;;;;4.80;2.67;;;17.80;99.90;;;;;;5092066;28;20028;-53
2022/08/21 06:41:55;;;;;;;4.70;2.50;;;17.90;99.90;;;;;;5080947;28;20269;-53
2022/08/21 06:44:21;;;;;;;8.18;2.92;;;17.90;99.90;;;;;;5071222;28;20039;-53
2022/08/21 06:46:46;;;;;;;9.50;3.08;;;18.00;99.90;;;;;;5074028;28;20386;-53
2022/08/21 06:49:12;;;;;;;8.23;2.53;;;18.10;99.90;;;;;;5082716;28;20074;-54
2022/08/21 06:51:38;;;;;;;8.85;2.58;;;18.10;99.90;;;;;;5071174;28;20032;-53
2022/08/21 06:54:04;;;;;;;2.70;2.17;;;18.20;99.90;;;;;;5071047;28;20031;-53
2022/08/21 06:56:31;;;;;;;8.35;2.92;;;18.30;99.90;;;;;;5072407;28;20029;-53
2022/08/21 06:58:56;;;;;;;4.45;2.20;;;18.50;99.90;;;;;;5076117;28;20028;-55
2022/08/21 07:01:24;;;;;;;6.18;2.75;;;18.60;99.90;;;;;;5063669;28;20021;-53
2022/08/21 07:03:50;;;;;;;3.50;2.33;;;18.60;99.90;;;;;;5076895;28;20025;-53
2022/08/21 07:06:16;;;;;;;4.55;2.25;;;18.60;99.90;;;;;;5070235;28;20251;-54
2022/08/21 07:08:41;;;;;;;5.97;2.45;;;18.70;99.90;;;;;;5078310;28;20089;-53
2022/08/21 07:11:16;;;;;;;4.82;2.45;;;18.80;99.90;;;;;;5085184;28;20413;-53
2022/08/21 07:13:42;;;;;;;4.72;2.30;;;19.10;99.90;;;;;;5082983;28;20090;-54
2022/08/21 07:16:08;;;;;;;4.05;2.15;;;19.30;99.90;;;;;;5086698;28;20028;-54
2022/08/21 07:18:33;;;;;;;4.65;2.20;;;19.50;99.90;;;;;;5090191;28;20036;-54
2022/08/21 07:21:01;;;;;;;5.18;1.92;;;19.60;99.90;;;;;;5074990;28;20072;-54
2022/08/21 07:23:31;;;;;;;5.82;2.25;;;19.60;99.90;;;;;;5088633;28;20058;-54
2022/08/21 07:25:59;;;;;;;4.25;2.42;;;19.80;99.90;;;;;;5085003;28;20162;-54
2022/08/21 07:28:24;;;;;;;3.70;1.80;;;19.90;99.90;;;;;;5086286;28;20020;-54
2022/08/21 07:30:53;;;;;;;6.53;2.17;;;20.10;99.90;;;;;;5069555;28;20388;-54
2022/08/21 07:33:18;;;;;;;3.95;1.90;;;20.10;99.10;;;;;;5069919;28;20549;-54
2022/08/21 07:35:44;;;;;;;4.22;1.73;;;20.30;99.50;;;;;;5090853;28;20104;-54
2022/08/21 07:38:10;;;;;;;5.13;2.20;;;20.50;98.80;;;;;;5085190;28;20024;-54
2022/08/21 07:40:36;;;;;;;2.70;1.50;;;20.70;97.30;;;;;;5081209;28;20031;-54
2022/08/21 07:43:02;;;;;;;4.20;1.95;;;20.80;97.40;;;;;;5087160;28;20020;-54
2022/08/21 07:45:28;;;;;;;4.53;1.80;;;21.00;97.00;;;;;;5079655;28;20103;-54
2022/08/21 07:47:53;;;;;;;3.67;2.10;;;21.30;97.00;;;;;;5070151;28;20147;-54
2022/08/21 07:50:19;;;;;;;6.82;2.20;;;21.50;95.40;;;;;;5054619;28;20055;-54
2022/08/21 07:52:45;;;;;;;3.15;1.90;;;21.60;93.80;;;;;;5076300;28;20029;-54
2022/08/21 07:55:14;;;;;;;7.70;2.50;;;21.80;94.00;;;;;;5067906;28;20017;-54
2022/08/21 07:57:40;;;;;;;3.47;2.30;;;21.90;92.60;;;;;;5081575;28;20032;-53
2022/08/21 08:00:12;;;;;;;8.77;2.63;;;21.90;92.10;;;;;;5082783;28;20315;-55
2022/08/21 08:02:37;;;;;;;6.40;1.90;;;22.20;91.80;;;;;;5064707;28;20025;-54
2022/08/21 08:05:05;;;;;;;5.07;1.90;;;22.20;90.60;;;;;;5067135;28;20027;-54
2022/08/21 08:07:31;;;;;;;4.20;2.08;;;22.50;90.90;;;;;;5068842;28;20368;-54
2022/08/21 08:09:58;;;;;;;7.40;2.40;;;22.90;89.10;;;;;;5079525;28;20111;-54
2022/08/21 08:12:28;;;;;;;4.82;2.40;;;23.10;89.80;;;;;;5067016;28;20021;-54
2022/08/21 08:14:57;;;;;;;4.65;2.15;;;23.60;85.80;;;;;;5070489;28;20074;-54
2022/08/21 08:17:23;;;;;;;5.53;1.70;;;23.90;85.00;;;;;;5086926;28;20066;-54
2022/08/21 08:19:49;;;;;;;5.63;1.80;;;24.40;83.70;;;;;;5082166;28;20480;-54
2022/08/21 08:22:19;;;;;;;3.90;2.08;;;24.50;82.50;;;;;;5076727;28;20085;-56
2022/08/21 08:24:45;;;;;;;6.57;2.23;;;24.50;81.40;;;;;;5087005;28;20019;-55
2022/08/21 08:27:11;;;;;;;4.78;2.00;;;24.70;80.30;;;;;;5071907;28;20346;-55
2022/08/21 08:29:37;;;;;;;4.47;2.13;;;24.50;81.00;;;;;;5068351;28;20449;-55
2022/08/21 08:32:04;;;;;;;3.30;1.95;;;25.20;80.80;;;;;;5071511;28;20024;-55
2022/08/21 08:34:30;;;;;;;6.38;2.60;;;26.40;78.50;;;;;;5080109;28;20111;-55
2022/08/21 08:36:57;;;;;;;4.22;1.65;;;26.70;75.70;;;;;;5086732;28;20360;-55
2022/08/21 08:39:23;;;;;;;2.65;1.75;;;27.60;74.70;;;;;;5079837;28;20039;-55
2022/08/21 08:41:51;;;;;;;6.55;2.53;;;29.10;72.60;;;;;;5087822;28;20467;-55
2022/08/21 08:44:16;;;;;;;3.97;1.60;;;29.30;67.90;;;;;;5077205;28;20390;-56
2022/08/21 08:46:50;;;;;;;3.70;1.95;;;29.60;69.30;;;;;;5080869;28;20031;-55
2022/08/21 08:49:34;;;;;;;3.22;1.98;;;29.60;67.30;;;;;;5080955;28;20376;-54
2022/08/21 08:52:18;;;;;;;4.95;2.13;;;28.80;68.50;;;;;;5082695;28;20028;-56
2022/08/21 08:54:57;;;;;;;4.25;1.85;;;27.90;70.30;;;;;;5083755;28;20032;-55
2022/08/21 08:57:24;;;;;;;3.10;1.88;;;27.00;72.70;;;;;;5090442;28;20060;-56
2022/08/21 08:59:53;;;;;;;5.50;2.10;;;26.30;74.50;;;;;;5083169;28;20077;-55
2022/08/21 09:02:19;;;;;;;9.00;2.17;;;25.90;76.80;;;;;;5081058;28;20040;-56
2022/08/21 09:04:48;;;;;;;2.72;1.90;;;25.50;76.40;;;;;;5079843;28;20027;-56
2022/08/21 09:07:22;;;;;;;5.03;2.10;;;24.90;78.60;;;;;;5087535;28;20020;-55
2022/08/21 09:10:05;;;;;;;6.28;2.17;;;24.50;79.80;;;;;;5084735;28;20039;-55
2022/08/21 09:12:48;;;;;;;6.03;3.10;;;24.50;80.60;;;;;;5090711;28;20035;-55
2022/08/21 09:15:36;;;;;;;5.65;2.92;;;24.40;80.50;;;;;;5082744;28;20020;-56
2022/08/21 09:18:10;;;;;;;4.78;2.28;;;24.40;80.80;;;;;;5087073;28;20257;-55
2022/08/21 09:20:58;;;;;;;6.70;2.53;;;24.50;79.60;;;;;;5092147;28;20043;-54
2022/08/21 09:23:42;;;;;;;4.30;2.17;;;24.60;80.70;;;;;;5075178;28;20081;-54
2022/08/21 09:26:16;;;;;;;5.68;2.20;;;24.70;80.30;;;;;;5085159;28;20020;-54
2022/08/21 09:28:42;;;;;;;4.07;2.35;;;24.90;80.10;;;;;;5090666;28;20027;-54
2022/08/21 09:31:27;;;;;;;4.30;2.17;;;25.60;80.50;;;;;;5085232;28;20166;-54
2022/08/21 09:34:01;;;;;;;6.32;2.85;;;26.50;78.90;;;;;;5079613;28;20074;-55
2022/08/21 09:36:42;;;;;;;6.25;2.65;;;26.90;78.10;;;;;;5093030;28;20434;-55
2022/08/21 09:39:11;;;;;;;8.77;2.55;;;27.30;77.30;;;;;;5086276;28;20016;-54
2022/08/21 09:41:39;;;;;;;6.85;2.67;;;28.00;77.70;;;;;;5075587;28;20114;-55
2022/08/21 09:44:07;;;;;;;5.97;2.50;;;28.00;74.40;;;;;;5088433;28;20009;-55
2022/08/21 09:46:33;;;;;;;4.32;2.20;;;27.90;75.10;;;;;;5089157;28;20013;-55
2022/08/21 09:49:01;;;;;;;9.65;2.67;;;27.90;75.10;;;;;;5072859;28;20035;-54
2022/08/21 09:51:30;;;;;;;6.47;3.13;;;28.00;74.80;;;;;;5071743;28;20051;-55
2022/08/21 09:54:21;;;;;;;5.85;2.03;;;27.80;75.20;;;;;;5072281;28;20052;-55
2022/08/21 09:59:53;;;;;;;5.75;2.70;;;30.00;73.70;;;;;;5051473;28;20083;-55
2022/08/21 10:02:39;;;;;;;6.32;2.22;;;31.10;69.40;;;;;;5080589;28;20103;-55
2022/08/21 10:05:24;;;;;;;5.43;2.60;;;31.20;68.20;;;;;;5088218;28;20031;-55
2022/08/21 10:07:50;;;;;;;7.10;2.65;;;31.00;69.80;;;;;;5072559;28;20029;-56
2022/08/21 10:10:18;;;;;;;8.65;3.08;;;31.00;69.10;;;;;;5071838;28;20028;-55
2022/08/21 10:13:03;;;;;;;7.78;2.55;;;32.10;68.50;;;;;;5073694;28;20051;-55
2022/08/21 10:15:46;;;;;;;8.23;2.70;;;31.40;66.20;;;;;;5083849;28;20237;-55
2022/08/21 10:18:38;;;;;;;6.18;2.60;;;30.20;65.10;;;;;;5073569;28;20044;-54
2022/08/21 10:21:21;;;;;;;7.88;2.80;;;29.00;68.80;;;;;;5074429;28;20083;-54
2022/08/21 10:23:56;;;;;;;3.80;2.20;;;28.40;71.00;;;;;;5070003;28;20063;-55
2022/08/21 10:26:38;;;;;;;7.38;3.05;;;29.00;71.00;;;;;;5083201;28;20020;-54
2022/08/21 10:29:43;;;;;;;9.05;3.20;;;29.30;69.80;;;;;;5091366;28;20028;-56
2022/08/21 10:32:42;;;;;;;7.50;3.65;;;29.30;68.70;;;;;;5090602;28;20367;-55
2022/08/21 10:35:17;;;;;;;8.38;3.28;;;29.20;69.70;;;;;;5079501;28;20466;-55
2022/08/21 10:38:01;;;;;;;6.88;3.05;;;29.30;69.70;;;;;;5076558;28;20399;-56
2022/08/21 10:40:47;;;;;;;9.27;3.00;;;29.10;69.40;;;;;;5090682;28;20032;-55
2022/08/21 10:43:42;;;;;;;12.15;4.00;;;28.50;70.60;;;;;;5076482;28;20020;-55
2022/08/21 10:46:21;;;;;;;8.85;3.65;;;27.80;73.00;;;;;;5091649;28;20028;-54
2022/08/21 10:49:22;;;;;;;9.57;4.13;;;27.80;71.70;;;;;;5087238;28;20020;-56
2022/08/21 10:52:14;;;;;;;7.25;3.25;;;28.00;70.90;;;;;;5053493;28;20037;-55
2022/08/21 10:55:06;;;;;;;10.07;3.63;;;29.60;68.80;;;;;;5068257;28;20524;-54
2022/08/21 10:57:40;;;;;;;8.95;3.15;;;31.50;65.20;;;;;;5089736;28;20811;-54
2022/08/21 11:00:11;;;;;;;9.25;3.20;;;32.50;63.40;;;;;;5077345;28;20032;-54
2022/08/21 11:03:04;;;;;;;8.48;3.33;;;33.30;60.50;;;;;;5049985;28;20017;-53
2022/08/21 11:05:52;;;;;;;7.75;3.13;;;32.60;60.60;;;;;;5080631;28;20090;-53
2022/08/21 11:08:31;;;;;;;6.05;2.65;;;33.00;61.60;;;;;;5087342;28;20123;-55
2022/08/21 11:11:10;;;;;;;4.25;2.53;;;33.20;61.10;;;;;;5069829;28;20036;-53
2022/08/21 11:13:53;;;;;;;7.90;2.42;;;33.30;60.30;;;;;;5090382;28;20117;-55
2022/08/21 11:16:40;;;;;;;6.53;2.58;;;33.20;59.70;;;;;;5076674;28;20028;-53
2022/08/21 11:19:25;;;;;;;6.55;2.90;;;33.90;57.50;;;;;;5089391;28;20031;-54
2022/08/21 11:22:06;;;;;;;7.30;2.70;;;34.30;56.50;;;;;;5069803;28;20056;-54
2022/08/21 11:24:50;;;;;;;6.18;2.63;;;34.80;55.90;;;;;;5065307;28;20115;-54
2022/08/21 11:27:48;;;;;;;5.95;2.55;;;34.60;56.10;;;;;;5077256;28;20373;-53
2022/08/21 11:30:14;;;;;;;5.40;2.72;;;33.40;56.00;;;;;;5080158;28;20028;-53
2022/08/21 11:32:55;;;;;;;7.53;2.38;;;33.70;54.50;;;;;;5081053;28;20037;-54
2022/08/21 11:35:26;;;;;;;9.88;2.95;;;33.50;53.80;;;;;;5079753;28;20031;-54
2022/08/21 11:38:15;;;;;;;8.15;3.10;;;34.30;54.10;;;;;;5081878;28;20112;-54
2022/08/21 11:40:57;;;;;;;4.57;2.50;;;35.10;52.10;;;;;;5076763;28;20039;-54
2022/08/21 11:43:39;;;;;;;8.32;2.92;;;35.50;51.90;;;;;;5079197;28;20463;-53
2022/08/21 11:46:27;;;;;;;4.63;2.33;;;33.60;52.00;;;;;;5080689;28;20479;-54
2022/08/21 11:49:29;;;;;;;5.65;2.60;;;33.20;54.60;;;;;;5077575;28;20047;-53
2022/08/21 11:52:10;;;;;;;5.97;2.50;;;33.80;53.40;;;;;;5052307;28;20132;-54
2022/08/21 11:54:52;;;;;;;4.82;2.40;;;34.70;49.50;;;;;;5049225;28;20642;-53
2022/08/21 11:57:26;;;;;;;8.82;2.70;;;34.00;51.70;;;;;;5073818;28;20107;-54
2022/08/21 12:00:10;;;;;;;12.20;2.95;;;32.40;52.30;;;;;;5087005;28;20020;-53
2022/08/21 12:02:44;;;;;;;8.95;2.97;;;31.60;53.80;;;;;;5072870;28;20060;-53
2022/08/21 12:05:22;;;;;;;6.28;2.35;;;30.90;54.70;;;;;;5084793;28;20468;-53
2022/08/21 12:07:48;;;;;;;7.25;2.95;;;30.40;58.00;;;;;;5071689;28;20051;-53
2022/08/21 12:10:20;;;;;;;9.95;3.00;;;29.60;57.30;;;;;;5069464;28;20471;-54
2022/08/21 12:12:46;;;;;;;4.68;2.38;;;29.00;57.60;;;;;;5084398;28;20056;-53
2022/08/21 12:15:21;;;;;;;7.78;2.88;;;28.40;60.30;;;;;;5069037;28;20451;-53
2022/08/21 12:18:27;;;;;;;9.63;2.83;;;28.70;59.50;;;;;;5081300;28;20101;-53
2022/08/21 12:21:01;;;;;;;9.27;3.28;;;29.40;58.50;;;;;;5080251;28;20047;-53
2022/08/21 12:24:00;;;;;;;10.60;5.05;;;29.90;57.40;;;;;;5070843;28;20109;-54
2022/08/21 12:26:48;;;;;;;8.38;2.88;;;30.40;56.00;;;;;;5048294;28;20104;-55
2022/08/21 12:29:22;;;;;;;5.72;2.50;;;30.20;55.80;;;;;;5086425;28;20020;-55
2022/08/21 12:32:12;;;;;;;4.25;2.58;;;30.30;58.90;;;;;;5080313;28;20507;-54
2022/08/21 12:34:58;;;;;;;4.10;1.90;;;30.70;56.90;;;;;;5045985;28;20044;-54
2022/08/21 12:37:39;;;;;;;7.75;2.40;;;31.10;57.00;;;;;;5063427;28;20064;-54
2022/08/21 12:40:29;;;;;;;5.75;2.28;;;30.70;53.40;;;;;;5068252;28;20020;-54
2022/08/21 12:42:58;;;;;;;5.85;2.53;;;30.30;54.90;;;;;;5069974;28;20075;-54
2022/08/21 12:45:41;;;;;;;8.15;2.58;;;29.80;56.40;;;;;;5068101;28;20563;-54
2022/08/21 12:48:11;;;;;;;7.45;3.13;;;29.90;57.00;;;;;;5072305;28;20032;-54
2022/08/21 12:50:41;;;;;;;5.28;2.40;;;29.80;55.20;;;;;;5063803;28;20108;-55
2022/08/21 12:53:24;;;;;;;6.07;2.63;;;30.10;58.70;;;;;;5075321;28;20035;-55
2022/08/21 12:55:49;;;;;;;6.43;2.20;;;30.30;57.60;;;;;;5068172;28;20040;-54
2022/08/21 12:58:20;;;;;;;3.85;2.22;;;30.00;56.90;;;;;;5070718;28;20528;-54
2022/08/21 13:00:55;;;;;;;7.05;2.45;;;30.40;56.00;;;;;;5070853;28;20036;-54
2022/08/21 13:03:23;;;;;;;5.45;2.58;;;30.10;55.00;;;;;;5067040;28;20476;-55
2022/08/21 13:05:51;;;;;;;5.85;2.17;;;29.60;54.00;;;;;;5072251;28;20063;-54